sensor_id;sensor_type;location;lat;lon;timestamp;P1;durP1;ratioP1;P2;durP2;ratioP2
57718;SDS011;43561;50.090;18.522;2023-01-10T00:08:46;19.15;;;10.40;;
57718;SDS011;43561;50.090;18.522;2023-01-10T00:18:48;28.00;;;12.52;;
57718;SDS011;43561;50.090;18.522;2023-01-10T00:28:50;17.75;;;8.02;;
57718;SDS011;43561;50.090;18.522;2023-01-10T00:38:52;15.15;;;9.70;;
57718;SDS011;43561;50.090;18.522;2023-01-10T00:48:54;15.10;;;9.60;;
57718;SDS011;43561;50.090;18.522;2023-01-10T00:58:56;20.42;;;9.35;;
57718;SDS011;43561;50.090;18.522;2023-01-10T01:08:58;18.52;;;9.20;;
57718;SDS011;43561;50.090;18.522;2023-01-10T01:19:00;13.23;;;9.05;;
57718;SDS011;43561;50.090;18.522;2023-01-10T01:29:02;15.80;;;8.70;;
57718;SDS011;43561;50.090;18.522;2023-01-10T01:39:04;14.73;;;8.55;;
57718;SDS011;43561;50.090;18.522;2023-01-10T01:49:08;21.58;;;11.00;;
57718;SDS011;43561;50.090;18.522;2023-01-10T01:59:22;20.42;;;14.70;;
57718;SDS011;43561;50.090;18.522;2023-01-10T02:29:57;26.98;;;16.63;;
57718;SDS011;43561;50.090;18.522;2023-01-10T02:40:13;20.05;;;12.02;;
57718;SDS011;43561;50.090;18.522;2023-01-10T02:50:27;29.98;;;16.17;;
57718;SDS011;43561;50.090;18.522;2023-01-10T03:00:48;25.60;;;13.77;;
57718;SDS011;43561;50.090;18.522;2023-01-10T03:11:18;29.33;;;16.17;;
57718;SDS011;43561;50.090;18.522;2023-01-10T03:21:25;30.50;;;15.50;;
57718;SDS011;43561;50.090;18.522;2023-01-10T03:31:31;20.08;;;13.40;;
57718;SDS011;43561;50.090;18.522;2023-01-10T03:52:29;34.95;;;20.88;;
57718;SDS011;43561;50.090;18.522;2023-01-10T04:02:34;27.92;;;17.27;;
57718;SDS011;43561;50.090;18.522;2023-01-10T04:12:36;37.67;;;20.70;;
57718;SDS011;43561;50.090;18.522;2023-01-10T04:22:38;30.38;;;17.77;;
57718;SDS011;43561;50.090;18.522;2023-01-10T04:32:40;26.92;;;17.13;;
57718;SDS011;43561;50.090;18.522;2023-01-10T04:42:42;35.05;;;18.25;;
57718;SDS011;43561;50.090;18.522;2023-01-10T04:52:44;29.75;;;19.10;;
57718;SDS011;43561;50.090;18.522;2023-01-10T05:02:45;32.45;;;15.82;;
57718;SDS011;43561;50.090;18.522;2023-01-10T05:12:48;25.23;;;14.85;;
57718;SDS011;43561;50.090;18.522;2023-01-10T05:22:50;25.08;;;14.02;;
57718;SDS011;43561;50.090;18.522;2023-01-10T05:32:51;30.88;;;15.35;;
57718;SDS011;43561;50.090;18.522;2023-01-10T05:42:53;28.30;;;18.60;;
57718;SDS011;43561;50.090;18.522;2023-01-10T05:52:55;24.88;;;16.48;;
57718;SDS011;43561;50.090;18.522;2023-01-10T06:02:57;34.90;;;14.18;;
57718;SDS011;43561;50.090;18.522;2023-01-10T06:12:59;33.22;;;18.55;;
57718;SDS011;43561;50.090;18.522;2023-01-10T06:23:01;18.45;;;12.98;;
57718;SDS011;43561;50.090;18.522;2023-01-10T06:33:04;30.35;;;17.35;;
57718;SDS011;43561;50.090;18.522;2023-01-10T06:43:08;39.75;;;21.35;;
57718;SDS011;43561;50.090;18.522;2023-01-10T06:53:11;74.93;;;28.42;;
57718;SDS011;43561;50.090;18.522;2023-01-10T07:03:13;35.47;;;20.92;;
57718;SDS011;43561;50.090;18.522;2023-01-10T07:13:15;40.78;;;22.48;;
57718;SDS011;43561;50.090;18.522;2023-01-10T07:23:17;39.97;;;21.10;;
57718;SDS011;43561;50.090;18.522;2023-01-10T07:33:19;47.10;;;28.50;;
57718;SDS011;43561;50.090;18.522;2023-01-10T07:43:21;36.05;;;21.02;;
57718;SDS011;43561;50.090;18.522;2023-01-10T07:53:25;31.77;;;18.38;;
57718;SDS011;43561;50.090;18.522;2023-01-10T08:03:28;46.22;;;23.13;;
57718;SDS011;43561;50.090;18.522;2023-01-10T08:13:31;32.28;;;18.25;;
57718;SDS011;43561;50.090;18.522;2023-01-10T08:23:33;51.65;;;28.25;;
57718;SDS011;43561;50.090;18.522;2023-01-10T08:33:37;48.50;;;22.40;;
57718;SDS011;43561;50.090;18.522;2023-01-10T08:43:47;26.15;;;15.60;;
57718;SDS011;43561;50.090;18.522;2023-01-10T08:53:50;45.08;;;25.85;;
57718;SDS011;43561;50.090;18.522;2023-01-10T09:03:51;37.05;;;17.20;;
57718;SDS011;43561;50.090;18.522;2023-01-10T09:13:53;24.27;;;13.98;;
57718;SDS011;43561;50.090;18.522;2023-01-10T09:23:55;30.02;;;17.75;;
57718;SDS011;43561;50.090;18.522;2023-01-10T09:33:57;35.90;;;14.10;;
57718;SDS011;43561;50.090;18.522;2023-01-10T09:44:13;33.22;;;18.23;;
57718;SDS011;43561;50.090;18.522;2023-01-10T09:54:26;35.28;;;17.35;;
57718;SDS011;43561;50.090;18.522;2023-01-10T10:04:34;41.47;;;21.58;;
57718;SDS011;43561;50.090;18.522;2023-01-10T10:55:36;19.07;;;10.90;;
57718;SDS011;43561;50.090;18.522;2023-01-10T11:05:39;20.38;;;8.45;;
57718;SDS011;43561;50.090;18.522;2023-01-10T11:15:45;34.33;;;15.43;;
57718;SDS011;43561;50.090;18.522;2023-01-10T11:25:48;34.28;;;13.15;;
57718;SDS011;43561;50.090;18.522;2023-01-10T11:46:18;27.40;;;9.55;;
57718;SDS011;43561;50.090;18.522;2023-01-10T11:56:23;29.30;;;12.93;;
57718;SDS011;43561;50.090;18.522;2023-01-10T12:06:28;10.25;;;7.55;;
57718;SDS011;43561;50.090;18.522;2023-01-10T12:16:32;11.35;;;9.10;;
57718;SDS011;43561;50.090;18.522;2023-01-10T12:26:35;19.25;;;11.93;;
57718;SDS011;43561;50.090;18.522;2023-01-10T12:46:50;44.22;;;20.38;;
57718;SDS011;43561;50.090;18.522;2023-01-10T13:07:58;43.15;;;22.42;;
57718;SDS011;43561;50.090;18.522;2023-01-10T13:18:14;45.72;;;25.55;;
57718;SDS011;43561;50.090;18.522;2023-01-10T13:28:23;34.78;;;22.65;;
57718;SDS011;43561;50.090;18.522;2023-01-10T13:38:31;46.72;;;21.08;;
57718;SDS011;43561;50.090;18.522;2023-01-10T13:48:38;37.40;;;18.47;;
57718;SDS011;43561;50.090;18.522;2023-01-10T13:58:40;36.13;;;19.65;;
57718;SDS011;43561;50.090;18.522;2023-01-10T14:08:50;25.95;;;15.40;;
57718;SDS011;43561;50.090;18.522;2023-01-10T14:19:32;30.75;;;16.30;;
57718;SDS011;43561;50.090;18.522;2023-01-10T14:29:34;23.73;;;15.98;;
57718;SDS011;43561;50.090;18.522;2023-01-10T14:39:39;28.27;;;17.08;;
57718;SDS011;43561;50.090;18.522;2023-01-10T14:49:49;27.50;;;16.92;;
57718;SDS011;43561;50.090;18.522;2023-01-10T14:59:52;34.80;;;21.65;;
57718;SDS011;43561;50.090;18.522;2023-01-10T15:10:29;23.20;;;16.67;;
57718;SDS011;43561;50.090;18.522;2023-01-10T15:20:34;19.20;;;10.55;;
57718;SDS011;43561;50.090;18.522;2023-01-10T15:30:36;21.23;;;12.73;;
57718;SDS011;43561;50.090;18.522;2023-01-10T15:40:38;26.10;;;15.85;;
57718;SDS011;43561;50.090;18.522;2023-01-10T15:50:51;23.02;;;12.48;;
57718;SDS011;43561;50.090;18.522;2023-01-10T16:00:55;17.23;;;11.90;;
57718;SDS011;43561;50.090;18.522;2023-01-10T16:11:01;25.90;;;14.85;;
57718;SDS011;43561;50.090;18.522;2023-01-10T16:21:06;21.45;;;13.73;;
57718;SDS011;43561;50.090;18.522;2023-01-10T16:31:09;26.35;;;17.85;;
57718;SDS011;43561;50.090;18.522;2023-01-10T16:41:13;22.83;;;12.82;;
57718;SDS011;43561;50.090;18.522;2023-01-10T17:01:19;54.53;;;21.90;;
57718;SDS011;43561;50.090;18.522;2023-01-10T17:11:34;29.13;;;18.38;;
57718;SDS011;43561;50.090;18.522;2023-01-10T17:21:40;48.08;;;24.50;;
57718;SDS011;43561;50.090;18.522;2023-01-10T17:31:42;29.63;;;18.88;;
57718;SDS011;43561;50.090;18.522;2023-01-10T17:41:44;39.90;;;23.40;;
57718;SDS011;43561;50.090;18.522;2023-01-10T17:51:46;49.97;;;22.45;;
57718;SDS011;43561;50.090;18.522;2023-01-10T18:01:48;37.05;;;21.83;;
57718;SDS011;43561;50.090;18.522;2023-01-10T18:11:50;41.92;;;19.27;;
57718;SDS011;43561;50.090;18.522;2023-01-10T18:21:52;52.45;;;19.13;;
57718;SDS011;43561;50.090;18.522;2023-01-10T18:31:54;35.13;;;19.40;;
57718;SDS011;43561;50.090;18.522;2023-01-10T18:41:57;38.58;;;20.60;;
57718;SDS011;43561;50.090;18.522;2023-01-10T18:51:59;41.75;;;24.75;;
57718;SDS011;43561;50.090;18.522;2023-01-10T19:02:01;42.45;;;23.52;;
57718;SDS011;43561;50.090;18.522;2023-01-10T19:12:03;56.58;;;26.60;;
57718;SDS011;43561;50.090;18.522;2023-01-10T19:22:05;49.35;;;25.08;;
57718;SDS011;43561;50.090;18.522;2023-01-10T19:32:07;59.80;;;29.13;;
57718;SDS011;43561;50.090;18.522;2023-01-10T19:42:09;36.03;;;24.55;;
57718;SDS011;43561;50.090;18.522;2023-01-10T19:52:11;50.65;;;23.70;;
57718;SDS011;43561;50.090;18.522;2023-01-10T20:02:13;48.05;;;21.70;;
57718;SDS011;43561;50.090;18.522;2023-01-10T20:12:15;50.83;;;23.80;;
57718;SDS011;43561;50.090;18.522;2023-01-10T20:22:17;42.72;;;19.05;;
57718;SDS011;43561;50.090;18.522;2023-01-10T20:32:19;62.83;;;24.13;;
57718;SDS011;43561;50.090;18.522;2023-01-10T20:42:21;46.05;;;22.92;;
57718;SDS011;43561;50.090;18.522;2023-01-10T20:52:23;42.72;;;20.23;;
57718;SDS011;43561;50.090;18.522;2023-01-10T21:02:25;73.22;;;33.72;;
57718;SDS011;43561;50.090;18.522;2023-01-10T21:12:28;52.42;;;28.92;;
57718;SDS011;43561;50.090;18.522;2023-01-10T21:22:30;50.97;;;26.63;;
57718;SDS011;43561;50.090;18.522;2023-01-10T21:32:32;42.30;;;22.98;;
57718;SDS011;43561;50.090;18.522;2023-01-10T21:42:34;63.53;;;33.72;;
57718;SDS011;43561;50.090;18.522;2023-01-10T21:52:38;100.40;;;45.10;;
57718;SDS011;43561;50.090;18.522;2023-01-10T22:02:40;49.35;;;26.58;;
57718;SDS011;43561;50.090;18.522;2023-01-10T22:12:42;61.63;;;33.90;;
57718;SDS011;43561;50.090;18.522;2023-01-10T22:22:43;106.47;;;51.40;;
57718;SDS011;43561;50.090;18.522;2023-01-10T22:32:45;103.03;;;58.88;;
57718;SDS011;43561;50.090;18.522;2023-01-10T22:42:48;113.30;;;51.92;;
57718;SDS011;43561;50.090;18.522;2023-01-10T22:52:50;81.72;;;39.60;;
57718;SDS011;43561;50.090;18.522;2023-01-10T23:02:52;49.63;;;29.60;;
57718;SDS011;43561;50.090;18.522;2023-01-10T23:12:54;65.75;;;35.03;;
57718;SDS011;43561;50.090;18.522;2023-01-10T23:22:56;49.47;;;27.65;;
57718;SDS011;43561;50.090;18.522;2023-01-10T23:32:58;54.28;;;25.00;;
57718;SDS011;43561;50.090;18.522;2023-01-10T23:43:00;40.25;;;22.38;;
57718;SDS011;43561;50.090;18.522;2023-01-10T23:53:02;39.70;;;21.95;;
